sensor_id;sensor_type;location;lat;lon;timestamp;pressure;altitude;pressure_sealevel;temperature;humidity
78613;BME280;67933;51.060;3.638;2023-08-08T00:01:57;101764.25;;;12.73;100.00
78613;BME280;67933;51.060;3.638;2023-08-08T00:04:23;101757.91;;;12.76;100.00
78613;BME280;67933;51.060;3.638;2023-08-08T00:06:48;101753.59;;;12.73;100.00
78613;BME280;67933;51.060;3.638;2023-08-08T00:09:14;101754.72;;;12.69;100.00
78613;BME280;67933;51.060;3.638;2023-08-08T00:11:39;101759.31;;;12.65;100.00
78613;BME280;67933;51.060;3.638;2023-08-08T00:14:05;101751.47;;;12.62;100.00
78613;BME280;67933;51.060;3.638;2023-08-08T00:16:30;101742.56;;;12.63;100.00
78613;BME280;67933;51.060;3.638;2023-08-08T00:18:55;101749.63;;;12.64;100.00
78613;BME280;67933;51.060;3.638;2023-08-08T00:21:21;101742.75;;;12.60;100.00
78613;BME280;67933;51.060;3.638;2023-08-08T00:23:46;101743.59;;;12.61;100.00
78613;BME280;67933;51.060;3.638;2023-08-08T00:26:12;101752.59;;;12.58;100.00
78613;BME280;67933;51.060;3.638;2023-08-08T00:28:37;101751.00;;;12.54;100.00
78613;BME280;67933;51.060;3.638;2023-08-08T00:31:03;101745.69;;;12.54;100.00
78613;BME280;67933;51.060;3.638;2023-08-08T00:33:28;101747.34;;;12.57;100.00
78613;BME280;67933;51.060;3.638;2023-08-08T00:35:54;101751.97;;;12.53;100.00
78613;BME280;67933;51.060;3.638;2023-08-08T00:38:19;101746.72;;;12.52;100.00
78613;BME280;67933;51.060;3.638;2023-08-08T00:40:44;101751.19;;;12.51;100.00
78613;BME280;67933;51.060;3.638;2023-08-08T00:43:10;101738.81;;;12.50;100.00
78613;BME280;67933;51.060;3.638;2023-08-08T00:45:37;101738.88;;;12.49;100.00
78613;BME280;67933;51.060;3.638;2023-08-08T00:48:03;101731.84;;;12.48;100.00
78613;BME280;67933;51.060;3.638;2023-08-08T00:50:29;101735.63;;;12.44;100.00
78613;BME280;67933;51.060;3.638;2023-08-08T00:52:55;101735.38;;;12.48;100.00
78613;BME280;67933;51.060;3.638;2023-08-08T00:55:21;101727.56;;;12.45;100.00
78613;BME280;67933;51.060;3.638;2023-08-08T00:57:46;101724.19;;;12.42;100.00
78613;BME280;67933;51.060;3.638;2023-08-08T01:00:12;101727.84;;;12.39;100.00
78613;BME280;67933;51.060;3.638;2023-08-08T01:02:38;101722.69;;;12.36;100.00
78613;BME280;67933;51.060;3.638;2023-08-08T01:05:04;101728.81;;;12.38;100.00
78613;BME280;67933;51.060;3.638;2023-08-08T01:07:59;101729.91;;;12.34;100.00
78613;BME280;67933;51.060;3.638;2023-08-08T01:10:31;101724.75;;;12.31;100.00
78613;BME280;67933;51.060;3.638;2023-08-08T01:13:00;101724.75;;;12.31;100.00
78613;BME280;67933;51.060;3.638;2023-08-08T01:15:29;101723.97;;;12.29;100.00
78613;BME280;67933;51.060;3.638;2023-08-08T01:18:01;101724.03;;;12.27;100.00
78613;BME280;67933;51.060;3.638;2023-08-08T01:20:27;101726.75;;;12.26;100.00
78613;BME280;67933;51.060;3.638;2023-08-08T01:25:21;101728.81;;;12.21;100.00
78613;BME280;67933;51.060;3.638;2023-08-08T01:27:46;101732.63;;;12.15;100.00
78613;BME280;67933;51.060;3.638;2023-08-08T01:30:12;101721.13;;;12.15;100.00
78613;BME280;67933;51.060;3.638;2023-08-08T01:32:37;101722.22;;;12.11;100.00
78613;BME280;67933;51.060;3.638;2023-08-08T01:35:03;101718.75;;;12.09;100.00
78613;BME280;67933;51.060;3.638;2023-08-08T01:37:30;101714.53;;;12.05;100.00
78613;BME280;67933;51.060;3.638;2023-08-08T01:39:59;101722.53;;;12.05;100.00
78613;BME280;67933;51.060;3.638;2023-08-08T01:42:25;101716.47;;;12.01;100.00
78613;BME280;67933;51.060;3.638;2023-08-08T01:44:53;101721.25;;;11.94;100.00
78613;BME280;67933;51.060;3.638;2023-08-08T01:47:19;101721.97;;;11.98;100.00
78613;BME280;67933;51.060;3.638;2023-08-08T01:49:45;101717.66;;;11.95;100.00
78613;BME280;67933;51.060;3.638;2023-08-08T01:52:10;101718.44;;;11.98;100.00
78613;BME280;67933;51.060;3.638;2023-08-08T01:54:35;101714.84;;;11.99;100.00
78613;BME280;67933;51.060;3.638;2023-08-08T01:57:01;101713.69;;;12.04;100.00
78613;BME280;67933;51.060;3.638;2023-08-08T01:59:26;101704.34;;;11.95;100.00
78613;BME280;67933;51.060;3.638;2023-08-08T02:01:51;101695.44;;;11.97;100.00
78613;BME280;67933;51.060;3.638;2023-08-08T02:04:17;101691.84;;;11.98;100.00
78613;BME280;67933;51.060;3.638;2023-08-08T02:06:42;101692.00;;;11.94;100.00
78613;BME280;67933;51.060;3.638;2023-08-08T02:09:08;101687.59;;;11.93;100.00
78613;BME280;67933;51.060;3.638;2023-08-08T02:11:33;101682.94;;;11.99;100.00
78613;BME280;67933;51.060;3.638;2023-08-08T02:13:59;101687.53;;;11.95;100.00
78613;BME280;67933;51.060;3.638;2023-08-08T02:16:24;101693.97;;;11.91;100.00
78613;BME280;67933;51.060;3.638;2023-08-08T02:18:49;101699.09;;;11.94;100.00
78613;BME280;67933;51.060;3.638;2023-08-08T02:21:15;101704.44;;;11.94;100.00
78613;BME280;67933;51.060;3.638;2023-08-08T02:23:40;101696.69;;;11.89;100.00
78613;BME280;67933;51.060;3.638;2023-08-08T02:26:06;101703.00;;;11.87;100.00
78613;BME280;67933;51.060;3.638;2023-08-08T02:28:31;101696.81;;;11.86;100.00
78613;BME280;67933;51.060;3.638;2023-08-08T02:30:57;101696.81;;;11.86;100.00
78613;BME280;67933;51.060;3.638;2023-08-08T02:33:22;101685.81;;;11.77;100.00
78613;BME280;67933;51.060;3.638;2023-08-08T02:35:47;101691.81;;;11.80;100.00
78613;BME280;67933;51.060;3.638;2023-08-08T02:38:13;101689.09;;;11.82;100.00
78613;BME280;67933;51.060;3.638;2023-08-08T02:40:38;101676.59;;;11.84;100.00
78613;BME280;67933;51.060;3.638;2023-08-08T02:43:06;101678.47;;;11.82;100.00
78613;BME280;67933;51.060;3.638;2023-08-08T02:45:32;101679.38;;;11.81;100.00
78613;BME280;67933;51.060;3.638;2023-08-08T02:47:57;101682.13;;;11.79;100.00
78613;BME280;67933;51.060;3.638;2023-08-08T02:50:22;101685.72;;;11.78;100.00
78613;BME280;67933;51.060;3.638;2023-08-08T02:52:48;101685.63;;;11.80;100.00
78613;BME280;67933;51.060;3.638;2023-08-08T02:55:14;101689.47;;;11.74;100.00
78613;BME280;67933;51.060;3.638;2023-08-08T02:57:39;101695.56;;;11.76;100.00
78613;BME280;67933;51.060;3.638;2023-08-08T03:00:05;101677.06;;;11.73;100.00
78613;BME280;67933;51.060;3.638;2023-08-08T03:02:33;101695.41;;;11.79;100.00
78613;BME280;67933;51.060;3.638;2023-08-08T03:04:59;101691.13;;;11.77;100.00
78613;BME280;67933;51.060;3.638;2023-08-08T03:07:24;101688.63;;;11.72;100.00
78613;BME280;67933;51.060;3.638;2023-08-08T03:09:49;101688.63;;;11.72;100.00
78613;BME280;67933;51.060;3.638;2023-08-08T03:12:15;101690.09;;;11.79;100.00
78613;BME280;67933;51.060;3.638;2023-08-08T03:14:41;101686.91;;;11.71;100.00
78613;BME280;67933;51.060;3.638;2023-08-08T03:17:06;101683.31;;;11.72;100.00
78613;BME280;67933;51.060;3.638;2023-08-08T03:19:31;101682.28;;;11.76;100.00
78613;BME280;67933;51.060;3.638;2023-08-08T03:21:57;101683.03;;;11.78;100.00
78613;BME280;67933;51.060;3.638;2023-08-08T03:24:22;101687.38;;;11.81;100.00
78613;BME280;67933;51.060;3.638;2023-08-08T03:26:47;101682.91;;;11.81;100.00
78613;BME280;67933;51.060;3.638;2023-08-08T03:29:13;101669.00;;;11.76;100.00
78613;BME280;67933;51.060;3.638;2023-08-08T03:31:38;101679.47;;;11.79;100.00
78613;BME280;67933;51.060;3.638;2023-08-08T03:34:04;101671.09;;;11.87;100.00
78613;BME280;67933;51.060;3.638;2023-08-08T03:36:30;101678.22;;;11.86;100.00
78613;BME280;67933;51.060;3.638;2023-08-08T03:38:55;101671.03;;;11.88;100.00
78613;BME280;67933;51.060;3.638;2023-08-08T03:41:20;101676.66;;;11.82;100.00
78613;BME280;67933;51.060;3.638;2023-08-08T03:43:46;101675.72;;;11.83;100.00
78613;BME280;67933;51.060;3.638;2023-08-08T03:46:11;101674.78;;;11.84;100.00
78613;BME280;67933;51.060;3.638;2023-08-08T03:48:37;101667.91;;;11.80;100.00
78613;BME280;67933;51.060;3.638;2023-08-08T03:51:03;101661.50;;;11.84;100.00
78613;BME280;67933;51.060;3.638;2023-08-08T03:53:29;101665.22;;;11.80;100.00
78613;BME280;67933;51.060;3.638;2023-08-08T03:55:54;101659.34;;;11.74;100.00
78613;BME280;67933;51.060;3.638;2023-08-08T03:58:20;101669.94;;;11.75;100.00
78613;BME280;67933;51.060;3.638;2023-08-08T04:00:45;101669.97;;;11.74;100.00
78613;BME280;67933;51.060;3.638;2023-08-08T04:03:15;101668.31;;;11.71;100.00
78613;BME280;67933;51.060;3.638;2023-08-08T04:05:41;101678.00;;;11.72;100.00
78613;BME280;67933;51.060;3.638;2023-08-08T04:08:10;101675.59;;;11.68;100.00
78613;BME280;67933;51.060;3.638;2023-08-08T04:10:36;101678.16;;;11.69;100.00
78613;BME280;67933;51.060;3.638;2023-08-08T04:13:01;101677.22;;;11.70;100.00
78613;BME280;67933;51.060;3.638;2023-08-08T04:15:27;101672.53;;;11.77;100.00
78613;BME280;67933;51.060;3.638;2023-08-08T04:17:52;101674.31;;;11.76;100.00
78613;BME280;67933;51.060;3.638;2023-08-08T04:20:17;101672.28;;;11.81;100.00
78613;BME280;67933;51.060;3.638;2023-08-08T04:22:43;101677.66;;;11.80;100.00
78613;BME280;67933;51.060;3.638;2023-08-08T04:25:08;101669.31;;;11.87;100.00
78613;BME280;67933;51.060;3.638;2023-08-08T04:27:33;101676.50;;;11.85;100.00
78613;BME280;67933;51.060;3.638;2023-08-08T04:29:59;101670.16;;;11.88;100.00
78613;BME280;67933;51.060;3.638;2023-08-08T04:32:24;101683.41;;;11.89;100.00
78613;BME280;67933;51.060;3.638;2023-08-08T04:34:50;101680.72;;;11.89;100.00
78613;BME280;67933;51.060;3.638;2023-08-08T04:37:15;101678.88;;;11.91;100.00
78613;BME280;67933;51.060;3.638;2023-08-08T04:39:40;101687.59;;;11.93;100.00
78613;BME280;67933;51.060;3.638;2023-08-08T04:42:06;101676.09;;;11.93;100.00
78613;BME280;67933;51.060;3.638;2023-08-08T04:44:31;101673.16;;;11.99;100.00
78613;BME280;67933;51.060;3.638;2023-08-08T04:46:57;101670.34;;;12.02;100.00
78613;BME280;67933;51.060;3.638;2023-08-08T04:49:23;101673.00;;;12.02;100.00
78613;BME280;67933;51.060;3.638;2023-08-08T04:51:48;101669.31;;;12.05;100.00
78613;BME280;67933;51.060;3.638;2023-08-08T04:54:15;101675.50;;;12.05;100.00
78613;BME280;67933;51.060;3.638;2023-08-08T04:56:40;101677.94;;;12.10;100.00
78613;BME280;67933;51.060;3.638;2023-08-08T04:59:05;101662.69;;;12.13;100.00
78613;BME280;67933;51.060;3.638;2023-08-08T05:01:31;101666.81;;;12.19;100.00
78613;BME280;67933;51.060;3.638;2023-08-08T05:03:56;101670.97;;;12.24;100.00
78613;BME280;67933;51.060;3.638;2023-08-08T05:06:22;101678.66;;;12.30;100.00
78613;BME280;67933;51.060;3.638;2023-08-08T05:08:49;101676.53;;;12.37;100.00
78613;BME280;67933;51.060;3.638;2023-08-08T05:11:15;101678.06;;;12.41;100.00
78613;BME280;67933;51.060;3.638;2023-08-08T05:13:40;101672.59;;;12.44;100.00
78613;BME280;67933;51.060;3.638;2023-08-08T05:16:06;101673.16;;;12.51;100.00
78613;BME280;67933;51.060;3.638;2023-08-08T05:18:31;101669.28;;;12.56;100.00
78613;BME280;67933;51.060;3.638;2023-08-08T05:20:56;101673.69;;;12.57;100.00
78613;BME280;67933;51.060;3.638;2023-08-08T05:23:22;101676.19;;;12.60;100.00
78613;BME280;67933;51.060;3.638;2023-08-08T05:25:47;101673.53;;;12.60;100.00
78613;BME280;67933;51.060;3.638;2023-08-08T05:28:13;101672.81;;;12.57;100.00
78613;BME280;67933;51.060;3.638;2023-08-08T05:30:38;101670.56;;;12.49;100.00
78613;BME280;67933;51.060;3.638;2023-08-08T05:33:04;101669.78;;;12.47;100.00
78613;BME280;67933;51.060;3.638;2023-08-08T05:35:30;101675.03;;;12.49;100.00
78613;BME280;67933;51.060;3.638;2023-08-08T05:37:55;101666.69;;;12.55;100.00
78613;BME280;67933;51.060;3.638;2023-08-08T05:40:21;101669.81;;;12.63;100.00
78613;BME280;67933;51.060;3.638;2023-08-08T05:42:46;101674.91;;;12.67;100.00
78613;BME280;67933;51.060;3.638;2023-08-08T05:45:12;101676.31;;;12.75;100.00
78613;BME280;67933;51.060;3.638;2023-08-08T05:47:37;101682.09;;;12.83;100.00
78613;BME280;67933;51.060;3.638;2023-08-08T05:50:03;101680.97;;;12.87;100.00
78613;BME280;67933;51.060;3.638;2023-08-08T05:52:28;101672.34;;;12.99;100.00
78613;BME280;67933;51.060;3.638;2023-08-08T05:54:54;101681.88;;;13.03;100.00
78613;BME280;67933;51.060;3.638;2023-08-08T05:57:19;101684.97;;;13.11;100.00
78613;BME280;67933;51.060;3.638;2023-08-08T05:59:46;101683.78;;;13.17;100.00
78613;BME280;67933;51.060;3.638;2023-08-08T06:02:12;101684.34;;;13.23;100.00
78613;BME280;67933;51.060;3.638;2023-08-08T06:04:37;101679.34;;;13.33;100.00
78613;BME280;67933;51.060;3.638;2023-08-08T06:07:03;101688.47;;;13.44;100.00
78613;BME280;67933;51.060;3.638;2023-08-08T06:09:29;101683.31;;;13.57;100.00
78613;BME280;67933;51.060;3.638;2023-08-08T06:11:54;101688.97;;;13.67;100.00
78613;BME280;67933;51.060;3.638;2023-08-08T06:14:19;101681.13;;;13.79;100.00
78613;BME280;67933;51.060;3.638;2023-08-08T06:16:45;101679.66;;;13.90;100.00
78613;BME280;67933;51.060;3.638;2023-08-08T06:19:11;101681.50;;;14.03;100.00
78613;BME280;67933;51.060;3.638;2023-08-08T06:21:39;101684.81;;;14.22;100.00
78613;BME280;67933;51.060;3.638;2023-08-08T06:24:04;101683.41;;;14.31;100.00
78613;BME280;67933;51.060;3.638;2023-08-08T06:26:29;101684.81;;;14.38;100.00
78613;BME280;67933;51.060;3.638;2023-08-08T06:28:55;101686.72;;;14.50;100.00
78613;BME280;67933;51.060;3.638;2023-08-08T06:31:20;101694.66;;;14.52;100.00
78613;BME280;67933;51.060;3.638;2023-08-08T06:33:47;101690.34;;;14.63;100.00
78613;BME280;67933;51.060;3.638;2023-08-08T06:36:12;101688.84;;;14.74;100.00
78613;BME280;67933;51.060;3.638;2023-08-08T06:38:38;101687.91;;;14.89;100.00
78613;BME280;67933;51.060;3.638;2023-08-08T06:41:03;101686.38;;;14.99;99.97
78613;BME280;67933;51.060;3.638;2023-08-08T06:43:30;101677.69;;;15.10;99.69
78613;BME280;67933;51.060;3.638;2023-08-08T06:45:56;101675.78;;;15.12;99.59
78613;BME280;67933;51.060;3.638;2023-08-08T06:48:21;101676.53;;;15.14;98.58
78613;BME280;67933;51.060;3.638;2023-08-08T06:50:46;101679.13;;;15.15;99.77
78613;BME280;67933;51.060;3.638;2023-08-08T06:53:12;101672.44;;;15.08;98.07
78613;BME280;67933;51.060;3.638;2023-08-08T06:55:37;101670.34;;;15.13;97.64
78613;BME280;67933;51.060;3.638;2023-08-08T06:58:03;101671.75;;;15.19;97.37
78613;BME280;67933;51.060;3.638;2023-08-08T07:00:29;101667.56;;;15.15;96.00
78613;BME280;67933;51.060;3.638;2023-08-08T07:02:54;101665.91;;;15.26;95.41
78613;BME280;67933;51.060;3.638;2023-08-08T07:05:20;101658.47;;;15.31;95.13
78613;BME280;67933;51.060;3.638;2023-08-08T07:07:47;101672.09;;;15.41;96.08
78613;BME280;67933;51.060;3.638;2023-08-08T07:10:13;101667.91;;;15.37;94.93
78613;BME280;67933;51.060;3.638;2023-08-08T07:12:38;101670.84;;;15.47;94.29
78613;BME280;67933;51.060;3.638;2023-08-08T07:15:06;101673.81;;;15.56;93.04
78613;BME280;67933;51.060;3.638;2023-08-08T07:17:32;101666.91;;;15.66;93.35
78613;BME280;67933;51.060;3.638;2023-08-08T07:19:57;101674.13;;;15.78;93.33
78613;BME280;67933;51.060;3.638;2023-08-08T07:22:23;101662.78;;;15.88;90.29
78613;BME280;67933;51.060;3.638;2023-08-08T07:24:48;101664.75;;;15.86;91.03
78613;BME280;67933;51.060;3.638;2023-08-08T07:27:14;101661.31;;;15.96;91.89
78613;BME280;67933;51.060;3.638;2023-08-08T07:29:39;101659.09;;;16.03;89.94
78613;BME280;67933;51.060;3.638;2023-08-08T07:32:05;101667.88;;;16.05;90.42
78613;BME280;67933;51.060;3.638;2023-08-08T07:34:31;101663.03;;;15.97;89.25
78613;BME280;67933;51.060;3.638;2023-08-08T07:36:57;101660.47;;;15.96;88.98
78613;BME280;67933;51.060;3.638;2023-08-08T07:39:23;101669.25;;;15.98;89.17
78613;BME280;67933;51.060;3.638;2023-08-08T07:41:48;101662.00;;;16.12;89.96
78613;BME280;67933;51.060;3.638;2023-08-08T07:44:14;101660.63;;;16.07;87.87
78613;BME280;67933;51.060;3.638;2023-08-08T07:46:39;101667.06;;;16.17;88.78
78613;BME280;67933;51.060;3.638;2023-08-08T07:49:04;101660.28;;;16.11;89.13
78613;BME280;67933;51.060;3.638;2023-08-08T07:51:31;101660.63;;;16.07;88.25
78613;BME280;67933;51.060;3.638;2023-08-08T07:53:58;101657.69;;;15.97;87.92
78613;BME280;67933;51.060;3.638;2023-08-08T07:56:24;101665.69;;;15.85;88.94
78613;BME280;67933;51.060;3.638;2023-08-08T07:58:49;101658.72;;;15.82;88.97
78613;BME280;67933;51.060;3.638;2023-08-08T08:01:15;101662.91;;;15.86;88.61
78613;BME280;67933;51.060;3.638;2023-08-08T08:03:40;101663.56;;;15.90;88.83
78613;BME280;67933;51.060;3.638;2023-08-08T08:06:07;101671.03;;;15.85;89.01
78613;BME280;67933;51.060;3.638;2023-08-08T08:08:32;101677.50;;;15.95;89.30
78613;BME280;67933;51.060;3.638;2023-08-08T08:10:58;101678.94;;;16.13;87.66
78613;BME280;67933;51.060;3.638;2023-08-08T08:13:23;101669.09;;;16.26;88.57
78613;BME280;67933;51.060;3.638;2023-08-08T08:15:48;101661.19;;;16.37;87.16
78613;BME280;67933;51.060;3.638;2023-08-08T08:18:14;101655.19;;;16.59;85.00
78613;BME280;67933;51.060;3.638;2023-08-08T08:20:43;101659.94;;;16.81;86.09
78613;BME280;67933;51.060;3.638;2023-08-08T08:23:08;101668.84;;;16.94;82.80
78613;BME280;67933;51.060;3.638;2023-08-08T08:25:34;101667.09;;;17.18;81.71
78613;BME280;67933;51.060;3.638;2023-08-08T08:28:00;101671.66;;;17.29;82.46
78613;BME280;67933;51.060;3.638;2023-08-08T08:30:25;101674.72;;;17.48;81.61
78613;BME280;67933;51.060;3.638;2023-08-08T08:32:52;101668.22;;;17.40;79.93
78613;BME280;67933;51.060;3.638;2023-08-08T08:35:17;101678.91;;;17.65;80.86
78613;BME280;67933;51.060;3.638;2023-08-08T08:37:43;101671.34;;;17.70;80.41
78613;BME280;67933;51.060;3.638;2023-08-08T08:40:09;101671.66;;;17.42;80.02
78613;BME280;67933;51.060;3.638;2023-08-08T08:42:35;101667.34;;;17.39;79.47
78613;BME280;67933;51.060;3.638;2023-08-08T08:45:02;101667.81;;;17.20;81.09
78613;BME280;67933;51.060;3.638;2023-08-08T08:47:29;101665.38;;;17.17;80.81
78613;BME280;67933;51.060;3.638;2023-08-08T08:49:57;101664.94;;;17.23;78.54
78613;BME280;67933;51.060;3.638;2023-08-08T08:52:22;101672.56;;;17.17;79.56
78613;BME280;67933;51.060;3.638;2023-08-08T08:54:48;101668.31;;;17.38;79.58
78613;BME280;67933;51.060;3.638;2023-08-08T08:57:14;101671.06;;;17.62;78.30
78613;BME280;67933;51.060;3.638;2023-08-08T08:59:40;101665.63;;;17.98;76.10
78613;BME280;67933;51.060;3.638;2023-08-08T09:02:06;101666.44;;;18.58;73.67
78613;BME280;67933;51.060;3.638;2023-08-08T09:04:33;101667.31;;;18.92;72.40
78613;BME280;67933;51.060;3.638;2023-08-08T09:07:00;101671.91;;;19.45;68.51
78613;BME280;67933;51.060;3.638;2023-08-08T09:09:26;101678.38;;;20.29;66.64
78613;BME280;67933;51.060;3.638;2023-08-08T09:11:53;101672.34;;;20.36;61.76
78613;BME280;67933;51.060;3.638;2023-08-08T09:14:22;101671.81;;;19.58;64.13
78613;BME280;67933;51.060;3.638;2023-08-08T09:16:49;101681.25;;;19.84;63.54
78613;BME280;67933;51.060;3.638;2023-08-08T09:19:16;101685.97;;;20.03;62.74
78613;BME280;67933;51.060;3.638;2023-08-08T09:21:43;101673.19;;;19.84;61.59
78613;BME280;67933;51.060;3.638;2023-08-08T09:24:08;101676.47;;;19.56;64.36
78613;BME280;67933;51.060;3.638;2023-08-08T09:26:34;101683.41;;;19.36;67.48
78613;BME280;67933;51.060;3.638;2023-08-08T09:29:02;101686.16;;;19.47;64.99
78613;BME280;67933;51.060;3.638;2023-08-08T09:31:28;101678.44;;;19.32;63.45
78613;BME280;67933;51.060;3.638;2023-08-08T09:33:55;101674.59;;;19.68;63.92
78613;BME280;67933;51.060;3.638;2023-08-08T09:36:22;101670.28;;;20.08;61.10
78613;BME280;67933;51.060;3.638;2023-08-08T09:38:47;101671.03;;;19.99;59.79
78613;BME280;67933;51.060;3.638;2023-08-08T09:41:13;101681.38;;;19.83;62.25
78613;BME280;67933;51.060;3.638;2023-08-08T09:43:39;101678.06;;;19.58;61.02
78613;BME280;67933;51.060;3.638;2023-08-08T09:46:04;101678.06;;;19.14;63.72
78613;BME280;67933;51.060;3.638;2023-08-08T09:48:31;101684.66;;;18.76;63.71
78613;BME280;67933;51.060;3.638;2023-08-08T09:51:02;101686.88;;;18.36;63.14
78613;BME280;67933;51.060;3.638;2023-08-08T09:53:28;101702.97;;;18.25;63.62
78613;BME280;67933;51.060;3.638;2023-08-08T09:55:54;101698.00;;;18.08;62.12
78613;BME280;67933;51.060;3.638;2023-08-08T09:58:21;101689.78;;;17.98;64.20
78613;BME280;67933;51.060;3.638;2023-08-08T10:00:49;101701.34;;;18.12;64.66
78613;BME280;67933;51.060;3.638;2023-08-08T10:03:16;101703.97;;;18.00;64.77
78613;BME280;67933;51.060;3.638;2023-08-08T10:05:42;101698.59;;;18.00;64.73
78613;BME280;67933;51.060;3.638;2023-08-08T10:08:08;101692.63;;;18.08;66.11
78613;BME280;67933;51.060;3.638;2023-08-08T10:10:34;101703.72;;;18.38;65.75
78613;BME280;67933;51.060;3.638;2023-08-08T10:13:01;101698.63;;;18.46;64.88
78613;BME280;67933;51.060;3.638;2023-08-08T10:15:27;101688.97;;;18.44;63.27
78613;BME280;67933;51.060;3.638;2023-08-08T10:17:56;101686.31;;;18.55;61.03
78613;BME280;67933;51.060;3.638;2023-08-08T10:20:24;101673.38;;;20.04;58.84
78613;BME280;67933;51.060;3.638;2023-08-08T10:22:52;101682.03;;;20.39;58.58
78613;BME280;67933;51.060;3.638;2023-08-08T10:25:25;101674.94;;;20.59;56.75
78613;BME280;67933;51.060;3.638;2023-08-08T10:28:14;101669.09;;;20.84;54.46
78613;BME280;67933;51.060;3.638;2023-08-08T10:30:57;101661.66;;;22.06;56.40
78613;BME280;67933;51.060;3.638;2023-08-08T10:33:26;101662.31;;;21.79;53.90
78613;BME280;67933;51.060;3.638;2023-08-08T10:36:02;101662.88;;;20.63;56.14
78613;BME280;67933;51.060;3.638;2023-08-08T10:38:48;101670.59;;;19.94;57.73
78613;BME280;67933;51.060;3.638;2023-08-08T10:41:21;101672.41;;;19.62;58.59
78613;BME280;67933;51.060;3.638;2023-08-08T10:43:55;101679.16;;;19.22;60.45
78613;BME280;67933;51.060;3.638;2023-08-08T10:46:26;101678.19;;;18.90;61.06
78613;BME280;67933;51.060;3.638;2023-08-08T10:48:53;101679.06;;;18.79;60.11
78613;BME280;67933;51.060;3.638;2023-08-08T10:51:19;101676.84;;;19.07;59.74
78613;BME280;67933;51.060;3.638;2023-08-08T10:53:45;101670.38;;;18.98;57.46
78613;BME280;67933;51.060;3.638;2023-08-08T10:56:13;101671.56;;;18.61;59.79
78613;BME280;67933;51.060;3.638;2023-08-08T10:58:41;101663.53;;;19.05;59.79
78613;BME280;67933;51.060;3.638;2023-08-08T11:01:07;101664.47;;;19.92;59.32
78613;BME280;67933;51.060;3.638;2023-08-08T11:03:39;101666.94;;;20.16;56.95
78613;BME280;67933;51.060;3.638;2023-08-08T11:06:09;101677.84;;;19.82;57.00
78613;BME280;67933;51.060;3.638;2023-08-08T11:08:35;101678.75;;;19.60;58.75
78613;BME280;67933;51.060;3.638;2023-08-08T11:11:03;101677.69;;;19.52;58.08
78613;BME280;67933;51.060;3.638;2023-08-08T11:13:29;101667.88;;;20.05;57.04
78613;BME280;67933;51.060;3.638;2023-08-08T11:15:54;101672.84;;;20.42;55.22
78613;BME280;67933;51.060;3.638;2023-08-08T11:18:20;101666.75;;;21.31;54.95
78613;BME280;67933;51.060;3.638;2023-08-08T11:20:46;101656.34;;;22.34;50.79
78613;BME280;67933;51.060;3.638;2023-08-08T11:23:12;101654.81;;;22.02;49.78
78613;BME280;67933;51.060;3.638;2023-08-08T11:25:43;101650.75;;;22.74;51.85
78613;BME280;67933;51.060;3.638;2023-08-08T11:28:09;101657.38;;;23.16;50.73
78613;BME280;67933;51.060;3.638;2023-08-08T11:30:38;101654.97;;;22.86;50.27
78613;BME280;67933;51.060;3.638;2023-08-08T11:33:05;101662.88;;;23.07;49.37
78613;BME280;67933;51.060;3.638;2023-08-08T11:35:31;101666.88;;;22.37;50.55
78613;BME280;67933;51.060;3.638;2023-08-08T11:37:58;101664.75;;;22.02;52.13
78613;BME280;67933;51.060;3.638;2023-08-08T11:40:25;101662.50;;;21.97;51.61
78613;BME280;67933;51.060;3.638;2023-08-08T11:42:52;101646.66;;;21.93;51.16
78613;BME280;67933;51.060;3.638;2023-08-08T11:45:18;101647.94;;;21.69;53.57
78613;BME280;67933;51.060;3.638;2023-08-08T11:47:48;101656.25;;;21.37;54.06
78613;BME280;67933;51.060;3.638;2023-08-08T11:50:14;101662.91;;;21.24;52.98
78613;BME280;67933;51.060;3.638;2023-08-08T11:52:41;101659.34;;;21.82;52.43
78613;BME280;67933;51.060;3.638;2023-08-08T11:55:08;101655.81;;;22.86;50.35
78613;BME280;67933;51.060;3.638;2023-08-08T11:57:40;101642.16;;;24.23;47.04
78613;BME280;67933;51.060;3.638;2023-08-08T12:00:07;101649.78;;;23.29;45.69
78613;BME280;67933;51.060;3.638;2023-08-08T12:02:35;101643.25;;;23.50;48.05
78613;BME280;67933;51.060;3.638;2023-08-08T12:05:07;101647.00;;;24.37;44.02
78613;BME280;67933;51.060;3.638;2023-08-08T12:07:34;101647.72;;;24.73;43.81
78613;BME280;67933;51.060;3.638;2023-08-08T12:10:00;101629.66;;;25.16;43.41
78613;BME280;67933;51.060;3.638;2023-08-08T12:12:27;101640.94;;;23.27;46.95
78613;BME280;67933;51.060;3.638;2023-08-08T12:14:56;101628.94;;;22.65;49.86
78613;BME280;67933;51.060;3.638;2023-08-08T12:17:21;101618.22;;;22.27;51.24
78613;BME280;67933;51.060;3.638;2023-08-08T12:19:47;101608.66;;;22.52;49.80
78613;BME280;67933;51.060;3.638;2023-08-08T12:22:13;101614.25;;;21.93;50.24
78613;BME280;67933;51.060;3.638;2023-08-08T12:24:40;101619.66;;;21.64;51.50
78613;BME280;67933;51.060;3.638;2023-08-08T12:27:05;101618.22;;;21.69;52.55
78613;BME280;67933;51.060;3.638;2023-08-08T12:29:31;101630.88;;;21.59;51.61
78613;BME280;67933;51.060;3.638;2023-08-08T12:31:56;101635.72;;;21.94;52.70
78613;BME280;67933;51.060;3.638;2023-08-08T12:34:22;101634.72;;;21.57;52.23
78613;BME280;67933;51.060;3.638;2023-08-08T12:36:47;101617.09;;;21.81;52.94
78613;BME280;67933;51.060;3.638;2023-08-08T12:39:12;101602.16;;;21.58;53.14
78613;BME280;67933;51.060;3.638;2023-08-08T12:41:39;101603.41;;;21.35;51.42
78613;BME280;67933;51.060;3.638;2023-08-08T12:44:04;101600.31;;;21.87;51.48